sensor_id;sensor_type;location;lat;lon;timestamp;pressure;altitude;pressure_sealevel;temperature;humidity
60427;BME280;46274;47.168;27.604;2023-04-25T00:04:31;99020.50;;;11.24;68.54
60427;BME280;46274;47.168;27.604;2023-04-25T00:10:36;98994.84;;;11.07;69.23
60427;BME280;46274;47.168;27.604;2023-04-25T00:16:38;98993.88;;;10.60;73.25
60427;BME280;46274;47.168;27.604;2023-04-25T00:22:43;98961.28;;;9.98;75.23
60427;BME280;46274;47.168;27.604;2023-04-25T00:28:48;99001.47;;;10.91;71.57
60427;BME280;46274;47.168;27.604;2023-04-25T00:34:50;98995.88;;;10.93;72.23
60427;BME280;46274;47.168;27.604;2023-04-25T00:40:52;98907.63;;;10.57;71.50
60427;BME280;46274;47.168;27.604;2023-04-25T00:46:55;98958.91;;;10.65;72.83
60427;BME280;46274;47.168;27.604;2023-04-25T00:52:57;98991.84;;;10.75;72.56
60427;BME280;46274;47.168;27.604;2023-04-25T00:59:00;98988.47;;;10.60;73.48
60427;BME280;46274;47.168;27.604;2023-04-25T01:05:04;98884.13;;;10.09;72.41
60427;BME280;46274;47.168;27.604;2023-04-25T01:11:07;98984.72;;;10.61;73.25
60427;BME280;46274;47.168;27.604;2023-04-25T01:17:10;98995.41;;;10.82;72.09
60427;BME280;46274;47.168;27.604;2023-04-25T01:23:13;98993.16;;;10.93;71.52
60427;BME280;46274;47.168;27.604;2023-04-25T01:29:18;98985.88;;;11.06;70.84
60427;BME280;46274;47.168;27.604;2023-04-25T01:35:20;98979.41;;;11.01;71.24
60427;BME280;46274;47.168;27.604;2023-04-25T01:41:24;98969.00;;;11.11;70.83
60427;BME280;46274;47.168;27.604;2023-04-25T01:47:26;98980.22;;;11.01;70.84
60427;BME280;46274;47.168;27.604;2023-04-25T01:53:32;98972.09;;;10.95;71.51
60427;BME280;46274;47.168;27.604;2023-04-25T01:59:36;98967.25;;;10.70;73.43
60427;BME280;46274;47.168;27.604;2023-04-25T02:05:39;98925.34;;;10.66;71.93
60427;BME280;46274;47.168;27.604;2023-04-25T02:11:43;98878.22;;;10.40;71.43
60427;BME280;46274;47.168;27.604;2023-04-25T02:17:46;98956.47;;;11.10;70.25
60427;BME280;46274;47.168;27.604;2023-04-25T02:23:49;98875.91;;;10.37;72.12
60427;BME280;46274;47.168;27.604;2023-04-25T02:29:55;98918.59;;;9.94;75.83
60427;BME280;46274;47.168;27.604;2023-04-25T02:35:57;98922.38;;;10.47;73.50
60427;BME280;46274;47.168;27.604;2023-04-25T02:42:00;98951.41;;;10.67;73.23
60427;BME280;46274;47.168;27.604;2023-04-25T02:48:03;98805.47;;;9.56;74.10
60427;BME280;46274;47.168;27.604;2023-04-25T02:54:08;98923.16;;;9.87;76.19
60427;BME280;46274;47.168;27.604;2023-04-25T03:00:10;98950.34;;;10.13;76.37
60427;BME280;46274;47.168;27.604;2023-04-25T03:06:14;98956.97;;;10.45;74.44
60427;BME280;46274;47.168;27.604;2023-04-25T03:12:17;98969.47;;;10.46;74.47
60427;BME280;46274;47.168;27.604;2023-04-25T03:18:19;98832.38;;;9.71;73.99
60427;BME280;46274;47.168;27.604;2023-04-25T03:24:23;98957.41;;;10.49;74.23
60427;BME280;46274;47.168;27.604;2023-04-25T03:30:25;98876.22;;;10.08;73.39
60427;BME280;46274;47.168;27.604;2023-04-25T03:36:28;98954.28;;;10.52;73.72
60427;BME280;46274;47.168;27.604;2023-04-25T03:42:30;98937.69;;;10.27;74.19
60427;BME280;46274;47.168;27.604;2023-04-25T03:48:33;98953.44;;;10.52;73.72
60427;BME280;46274;47.168;27.604;2023-04-25T03:54:39;98914.03;;;9.94;75.22
60427;BME280;46274;47.168;27.604;2023-04-25T04:00:42;98941.31;;;10.34;73.76
60427;BME280;46274;47.168;27.604;2023-04-25T04:06:46;98902.00;;;10.03;74.66
60427;BME280;46274;47.168;27.604;2023-04-25T04:12:49;98928.28;;;10.16;74.78
60427;BME280;46274;47.168;27.604;2023-04-25T04:18:51;98957.59;;;10.41;74.22
60427;BME280;46274;47.168;27.604;2023-04-25T04:24:53;98925.34;;;9.70;77.04
60427;BME280;46274;47.168;27.604;2023-04-25T04:30:56;98937.34;;;10.30;74.57
60427;BME280;46274;47.168;27.604;2023-04-25T04:36:59;98968.59;;;10.33;74.98
60427;BME280;46274;47.168;27.604;2023-04-25T04:43:02;98925.34;;;10.04;75.13
60427;BME280;46274;47.168;27.604;2023-04-25T04:49:05;98959.69;;;10.45;73.98
60427;BME280;46274;47.168;27.604;2023-04-25T04:55:08;98939.94;;;10.17;75.31
60427;BME280;46274;47.168;27.604;2023-04-25T05:01:12;98791.16;;;9.69;72.63
60427;BME280;46274;47.168;27.604;2023-04-25T05:07:15;98966.59;;;10.68;73.85
60427;BME280;46274;47.168;27.604;2023-04-25T05:13:18;98903.44;;;10.41;72.93
60427;BME280;46274;47.168;27.604;2023-04-25T05:19:22;98825.44;;;10.10;72.22
60427;BME280;46274;47.168;27.604;2023-04-25T05:25:24;98955.00;;;11.01;72.36
60427;BME280;46274;47.168;27.604;2023-04-25T05:31:27;98952.50;;;11.06;72.48
60427;BME280;46274;47.168;27.604;2023-04-25T05:37:29;98931.88;;;11.31;70.94
60427;BME280;46274;47.168;27.604;2023-04-25T05:43:34;98800.75;;;10.59;70.85
60427;BME280;46274;47.168;27.604;2023-04-25T05:49:37;98944.78;;;11.56;70.12
60427;BME280;46274;47.168;27.604;2023-04-25T05:55:39;98827.22;;;10.90;69.99
60427;BME280;46274;47.168;27.604;2023-04-25T06:01:42;98928.91;;;11.66;69.64
60427;BME280;46274;47.168;27.604;2023-04-25T06:07:44;98888.50;;;11.31;69.08
60427;BME280;46274;47.168;27.604;2023-04-25T06:13:47;98918.63;;;12.02;68.53
60427;BME280;46274;47.168;27.604;2023-04-25T06:19:50;98930.25;;;12.22;67.96
60427;BME280;46274;47.168;27.604;2023-04-25T06:25:53;98906.09;;;12.52;66.65
60427;BME280;46274;47.168;27.604;2023-04-25T06:31:55;98871.38;;;12.16;66.44
60427;BME280;46274;47.168;27.604;2023-04-25T06:37:59;98890.28;;;12.36;66.32
60427;BME280;46274;47.168;27.604;2023-04-25T06:44:03;98912.28;;;12.59;65.31
60427;BME280;46274;47.168;27.604;2023-04-25T06:50:06;98912.06;;;12.68;65.58
60427;BME280;46274;47.168;27.604;2023-04-25T06:56:11;98902.28;;;13.17;64.43
60427;BME280;46274;47.168;27.604;2023-04-25T07:02:13;98903.34;;;13.41;63.09
60427;BME280;46274;47.168;27.604;2023-04-25T07:08:16;98899.41;;;13.12;63.75
60427;BME280;46274;47.168;27.604;2023-04-25T07:14:18;98748.59;;;12.39;63.16
60427;BME280;46274;47.168;27.604;2023-04-25T07:20:27;98770.31;;;12.39;63.05
60427;BME280;46274;47.168;27.604;2023-04-25T07:26:48;98896.28;;;13.58;62.56
60427;BME280;46274;47.168;27.604;2023-04-25T07:33:05;98882.53;;;13.90;62.33
60427;BME280;46274;47.168;27.604;2023-04-25T07:39:23;98645.00;;;12.60;61.12
60427;BME280;46274;47.168;27.604;2023-04-25T07:45:47;98876.06;;;14.21;61.23
60427;BME280;46274;47.168;27.604;2023-04-25T07:52:03;98883.03;;;14.35;60.77
60427;BME280;46274;47.168;27.604;2023-04-25T07:58:16;98677.47;;;13.10;60.55
60427;BME280;46274;47.168;27.604;2023-04-25T08:04:44;98866.81;;;14.71;60.44
60427;BME280;46274;47.168;27.604;2023-04-25T08:11:01;98854.66;;;14.97;59.21
60427;BME280;46274;47.168;27.604;2023-04-25T08:17:10;98867.84;;;15.12;59.29
60427;BME280;46274;47.168;27.604;2023-04-25T08:23:17;98785.53;;;15.03;59.18
60427;BME280;46274;47.168;27.604;2023-04-25T08:29:36;98809.25;;;15.38;58.74
60427;BME280;46274;47.168;27.604;2023-04-25T08:35:48;98694.44;;;15.16;58.25
60427;BME280;46274;47.168;27.604;2023-04-25T08:41:55;98843.44;;;16.16;57.52
60427;BME280;46274;47.168;27.604;2023-04-25T08:48:11;98830.63;;;16.05;58.55
60427;BME280;46274;47.168;27.604;2023-04-25T08:54:37;98763.63;;;15.74;58.06
60427;BME280;46274;47.168;27.604;2023-04-25T09:00:50;98651.13;;;15.31;58.27
60427;BME280;46274;47.168;27.604;2023-04-25T09:06:59;98833.72;;;16.08;57.98
60427;BME280;46274;47.168;27.604;2023-04-25T09:13:14;98780.44;;;15.82;58.62
60427;BME280;46274;47.168;27.604;2023-04-25T09:19:24;98828.63;;;16.74;58.00
60427;BME280;46274;47.168;27.604;2023-04-25T09:25:50;98824.88;;;16.92;57.11
60427;BME280;46274;47.168;27.604;2023-04-25T09:38:52;98743.28;;;16.55;55.90
60427;BME280;46274;47.168;27.604;2023-04-25T09:44:58;98809.63;;;16.96;56.04
60427;BME280;46274;47.168;27.604;2023-04-25T09:51:11;98817.59;;;17.54;55.94
60427;BME280;46274;47.168;27.604;2023-04-25T09:57:41;98745.91;;;17.18;55.72
60427;BME280;46274;47.168;27.604;2023-04-25T10:03:50;98771.78;;;17.27;55.92
60427;BME280;46274;47.168;27.604;2023-04-25T10:10:02;98796.34;;;17.22;57.25
60427;BME280;46274;47.168;27.604;2023-04-25T10:16:08;98791.78;;;17.11;56.51
60427;BME280;46274;47.168;27.604;2023-04-25T10:22:23;98717.78;;;16.84;56.87
60427;BME280;46274;47.168;27.604;2023-04-25T10:28:27;98791.66;;;17.39;57.29
60427;BME280;46274;47.168;27.604;2023-04-25T10:34:52;98787.84;;;17.40;57.32
60427;BME280;46274;47.168;27.604;2023-04-25T10:41:07;98780.97;;;17.60;57.40
60427;BME280;46274;47.168;27.604;2023-04-25T10:47:11;98660.75;;;16.75;57.15
60427;BME280;46274;47.168;27.604;2023-04-25T10:53:15;98686.31;;;17.69;56.45
60427;BME280;46274;47.168;27.604;2023-04-25T10:59:53;98727.28;;;17.37;55.93
60427;BME280;46274;47.168;27.604;2023-04-25T11:06:19;98717.91;;;17.55;57.00
60427;BME280;46274;47.168;27.604;2023-04-25T11:12:34;98688.38;;;17.13;55.93
60427;BME280;46274;47.168;27.604;2023-04-25T11:18:52;98683.09;;;17.28;55.67
60427;BME280;46274;47.168;27.604;2023-04-25T11:25:22;98577.16;;;16.63;56.01
60427;BME280;46274;47.168;27.604;2023-04-25T11:31:30;98690.06;;;17.19;56.39
60427;BME280;46274;47.168;27.604;2023-04-25T11:37:44;98759.13;;;17.43;54.61
60427;BME280;46274;47.168;27.604;2023-04-25T11:44:03;98590.47;;;16.76;56.14
60427;BME280;46274;47.168;27.604;2023-04-25T11:50:37;98669.00;;;16.97;58.22
60427;BME280;46274;47.168;27.604;2023-04-25T11:56:50;98727.47;;;16.57;59.58
60427;BME280;46274;47.168;27.604;2023-04-25T12:02:59;98759.84;;;16.49;61.28
60427;BME280;46274;47.168;27.604;2023-04-25T12:09:03;98764.63;;;16.25;62.11
60427;BME280;46274;47.168;27.604;2023-04-25T12:15:25;98687.00;;;16.09;61.31
60427;BME280;46274;47.168;27.604;2023-04-25T12:21:32;98583.56;;;14.69;63.40
60427;BME280;46274;47.168;27.604;2023-04-25T12:27:46;98661.66;;;15.39;63.16
60427;BME280;46274;47.168;27.604;2023-04-25T12:33:58;98672.06;;;15.42;63.68
60427;BME280;46274;47.168;27.604;2023-04-25T12:40:38;98733.31;;;15.35;65.11
60427;BME280;46274;47.168;27.604;2023-04-25T12:46:50;98669.34;;;14.78;64.97
60427;BME280;46274;47.168;27.604;2023-04-25T12:52:55;98729.50;;;15.36;64.71
60427;BME280;46274;47.168;27.604;2023-04-25T12:59:04;98684.50;;;14.98;65.25
60427;BME280;46274;47.168;27.604;2023-04-25T13:05:21;98507.03;;;13.88;65.33
60427;BME280;46274;47.168;27.604;2023-04-25T13:11:34;98552.06;;;13.19;68.69
60427;BME280;46274;47.168;27.604;2023-04-25T13:24:36;98717.09;;;14.04;70.53
60427;BME280;46274;47.168;27.604;2023-04-25T13:30:48;98743.81;;;13.46;72.74
60427;BME280;46274;47.168;27.604;2023-04-25T13:36:58;98565.66;;;12.52;72.96
60427;BME280;46274;47.168;27.604;2023-04-25T13:43:11;98742.91;;;13.52;73.62
60427;BME280;46274;47.168;27.604;2023-04-25T13:49:39;98721.84;;;13.48;74.24
60427;BME280;46274;47.168;27.604;2023-04-25T13:55:44;98672.63;;;12.94;74.88
60427;BME280;46274;47.168;27.604;2023-04-25T14:02:04;98728.56;;;13.45;74.78
60427;BME280;46274;47.168;27.604;2023-04-25T14:08:09;98731.69;;;13.24;74.78
60427;BME280;46274;47.168;27.604;2023-04-25T14:14:19;98671.50;;;13.02;74.79
60427;BME280;46274;47.168;27.604;2023-04-25T14:20:22;98719.72;;;13.31;74.98
60427;BME280;46274;47.168;27.604;2023-04-25T14:26:29;98716.31;;;13.36;75.76
60427;BME280;46274;47.168;27.604;2023-04-25T14:32:35;98625.81;;;12.74;76.10
60427;BME280;46274;47.168;27.604;2023-04-25T14:38:38;98674.28;;;13.14;76.64
60427;BME280;46274;47.168;27.604;2023-04-25T14:44:42;98636.38;;;12.82;75.91
60427;BME280;46274;47.168;27.604;2023-04-25T14:50:48;98514.69;;;12.10;76.17
60427;BME280;46274;47.168;27.604;2023-04-25T14:56:51;98620.03;;;12.70;76.19
60427;BME280;46274;47.168;27.604;2023-04-25T15:02:59;98686.91;;;13.08;77.65
60427;BME280;46274;47.168;27.604;2023-04-25T15:09:22;98688.44;;;13.04;78.01
60427;BME280;46274;47.168;27.604;2023-04-25T15:15:34;98625.06;;;12.66;78.01
60427;BME280;46274;47.168;27.604;2023-04-25T15:21:41;98676.09;;;12.83;78.34
60427;BME280;46274;47.168;27.604;2023-04-25T15:27:45;98618.84;;;12.59;78.47
60427;BME280;46274;47.168;27.604;2023-04-25T15:33:59;98626.44;;;12.76;78.19
60427;BME280;46274;47.168;27.604;2023-04-25T15:46:11;98360.84;;;10.80;78.86
60427;BME280;46274;47.168;27.604;2023-04-25T15:52:27;98625.00;;;12.73;78.34
60427;BME280;46274;47.168;27.604;2023-04-25T15:58:30;98568.81;;;12.49;77.59
60427;BME280;46274;47.168;27.604;2023-04-25T16:04:33;98615.94;;;12.79;78.09
60427;BME280;46274;47.168;27.604;2023-04-25T16:10:43;98621.59;;;12.78;78.00
60427;BME280;46274;47.168;27.604;2023-04-25T16:16:54;98615.41;;;12.71;77.89
60427;BME280;46274;47.168;27.604;2023-04-25T16:23:07;98546.09;;;12.25;77.54
60427;BME280;46274;47.168;27.604;2023-04-25T16:29:17;98629.31;;;12.62;78.97
60427;BME280;46274;47.168;27.604;2023-04-25T16:35:19;98629.22;;;12.69;78.82
60427;BME280;46274;47.168;27.604;2023-04-25T16:41:28;98613.00;;;12.62;78.48
60427;BME280;46274;47.168;27.604;2023-04-25T16:47:31;98598.22;;;12.33;78.84
60427;BME280;46274;47.168;27.604;2023-04-25T16:53:33;98640.59;;;12.59;78.87
60427;BME280;46274;47.168;27.604;2023-04-25T16:59:36;98614.38;;;12.47;78.60
60427;BME280;46274;47.168;27.604;2023-04-25T17:05:39;98621.56;;;12.41;78.91
60427;BME280;46274;47.168;27.604;2023-04-25T17:11:41;98614.06;;;12.36;78.70
60427;BME280;46274;47.168;27.604;2023-04-25T17:17:47;98641.63;;;12.40;79.32
60427;BME280;46274;47.168;27.604;2023-04-25T17:23:49;98558.88;;;11.99;78.89
60427;BME280;46274;47.168;27.604;2023-04-25T17:29:52;98635.28;;;12.46;78.33
60427;BME280;46274;47.168;27.604;2023-04-25T17:35:58;98627.44;;;12.38;79.12
60427;BME280;46274;47.168;27.604;2023-04-25T17:42:00;98634.53;;;12.39;79.43
60427;BME280;46274;47.168;27.604;2023-04-25T17:48:03;98552.94;;;11.84;79.24
60427;BME280;46274;47.168;27.604;2023-04-25T17:54:05;98628.75;;;12.29;79.78
60427;BME280;46274;47.168;27.604;2023-04-25T18:00:09;98623.41;;;12.22;79.90
60427;BME280;46274;47.168;27.604;2023-04-25T18:06:13;98654.38;;;12.39;80.09
60427;BME280;46274;47.168;27.604;2023-04-25T18:12:17;98607.09;;;12.04;80.27
60427;BME280;46274;47.168;27.604;2023-04-25T18:18:22;98626.09;;;12.04;80.81
60427;BME280;46274;47.168;27.604;2023-04-25T18:24:29;98566.44;;;11.65;80.63
60427;BME280;46274;47.168;27.604;2023-04-25T18:30:31;98625.19;;;12.10;80.94
60427;BME280;46274;47.168;27.604;2023-04-25T18:36:37;98623.22;;;11.92;81.46
60427;BME280;46274;47.168;27.604;2023-04-25T18:42:40;98580.34;;;11.75;81.13
60427;BME280;46274;47.168;27.604;2023-04-25T18:48:44;98642.75;;;12.07;81.21
60427;BME280;46274;47.168;27.604;2023-04-25T18:54:48;98557.97;;;11.55;81.78
60427;BME280;46274;47.168;27.604;2023-04-25T19:00:53;98640.31;;;11.99;82.06
60427;BME280;46274;47.168;27.604;2023-04-25T19:06:55;98640.75;;;11.96;81.89
60427;BME280;46274;47.168;27.604;2023-04-25T19:12:57;98606.03;;;11.73;82.13
60427;BME280;46274;47.168;27.604;2023-04-25T19:19:02;98651.28;;;12.11;81.74
60427;BME280;46274;47.168;27.604;2023-04-25T19:25:06;98657.28;;;12.19;81.29
60427;BME280;46274;47.168;27.604;2023-04-25T19:31:11;98616.25;;;12.03;81.51
60427;BME280;46274;47.168;27.604;2023-04-25T19:37:13;98630.69;;;12.03;81.63
60427;BME280;46274;47.168;27.604;2023-04-25T19:43:16;98602.84;;;11.83;81.88
60427;BME280;46274;47.168;27.604;2023-04-25T19:49:18;98606.94;;;11.92;82.03
60427;BME280;46274;47.168;27.604;2023-04-25T19:55:21;98630.94;;;12.20;81.14
60427;BME280;46274;47.168;27.604;2023-04-25T20:01:24;98624.16;;;12.11;82.03
60427;BME280;46274;47.168;27.604;2023-04-25T20:07:27;98635.84;;;12.11;81.89
60427;BME280;46274;47.168;27.604;2023-04-25T20:13:29;98447.25;;;10.88;82.71
60427;BME280;46274;47.168;27.604;2023-04-25T20:19:33;98597.78;;;11.93;82.02
60427;BME280;46274;47.168;27.604;2023-04-25T20:25:35;98620.19;;;12.07;82.58
60427;BME280;46274;47.168;27.604;2023-04-25T20:31:37;98621.91;;;12.26;81.48
60427;BME280;46274;47.168;27.604;2023-04-25T20:37:40;98593.88;;;12.07;81.67
60427;BME280;46274;47.168;27.604;2023-04-25T20:43:43;98500.19;;;11.54;81.22
60427;BME280;46274;47.168;27.604;2023-04-25T20:49:47;98614.38;;;12.28;81.45
60427;BME280;46274;47.168;27.604;2023-04-25T20:55:49;98599.63;;;12.42;80.43
60427;BME280;46274;47.168;27.604;2023-04-25T21:01:54;98581.38;;;12.06;81.58
60427;BME280;46274;47.168;27.604;2023-04-25T21:07:56;98598.44;;;12.13;81.81
60427;BME280;46274;47.168;27.604;2023-04-25T21:13:59;98596.25;;;12.22;81.50
60427;BME280;46274;47.168;27.604;2023-04-25T21:20:01;98581.31;;;12.31;81.07
60427;BME280;46274;47.168;27.604;2023-04-25T21:26:10;98585.38;;;12.47;79.71
60427;BME280;46274;47.168;27.604;2023-04-25T21:32:12;98580.59;;;11.99;81.56
60427;BME280;46274;47.168;27.604;2023-04-25T21:38:19;98591.72;;;12.16;81.55
60427;BME280;46274;47.168;27.604;2023-04-25T21:44:21;98536.03;;;11.82;81.28
60427;BME280;46274;47.168;27.604;2023-04-25T21:50:24;98470.50;;;11.34;81.96
60427;BME280;46274;47.168;27.604;2023-04-25T21:56:27;98568.84;;;11.80;82.97
60427;BME280;46274;47.168;27.604;2023-04-25T22:02:30;98544.56;;;11.60;83.10
60427;BME280;46274;47.168;27.604;2023-04-25T22:08:32;98581.91;;;11.65;84.30
60427;BME280;46274;47.168;27.604;2023-04-25T22:14:34;98533.06;;;11.65;82.41
60427;BME280;46274;47.168;27.604;2023-04-25T22:20:39;98581.31;;;11.88;82.79
60427;BME280;46274;47.168;27.604;2023-04-25T22:26:41;98561.66;;;11.61;83.50
60427;BME280;46274;47.168;27.604;2023-04-25T22:32:44;98487.72;;;11.15;83.87
60427;BME280;46274;47.168;27.604;2023-04-25T22:38:46;98571.63;;;11.67;83.59
60427;BME280;46274;47.168;27.604;2023-04-25T22:44:49;98444.19;;;10.78;83.89
60427;BME280;46274;47.168;27.604;2023-04-25T22:51:03;98548.34;;;11.59;82.96
60427;BME280;46274;47.168;27.604;2023-04-25T22:57:06;98485.63;;;11.17;83.03
60427;BME280;46274;47.168;27.604;2023-04-25T23:03:09;98573.50;;;11.66;83.19
60427;BME280;46274;47.168;27.604;2023-04-25T23:09:13;98576.22;;;11.66;83.22
60427;BME280;46274;47.168;27.604;2023-04-25T23:15:18;98577.56;;;11.57;83.99
60427;BME280;46274;47.168;27.604;2023-04-25T23:21:21;98570.06;;;11.52;84.05
60427;BME280;46274;47.168;27.604;2023-04-25T23:27:24;98576.63;;;11.70;82.69
60427;BME280;46274;47.168;27.604;2023-04-25T23:33:26;98351.97;;;10.35;82.29
60427;BME280;46274;47.168;27.604;2023-04-25T23:39:29;98564.22;;;11.55;83.76
60427;BME280;46274;47.168;27.604;2023-04-25T23:45:33;98573.06;;;12.01;81.22
60427;BME280;46274;47.168;27.604;2023-04-25T23:51:37;98579.44;;;12.13;79.68
60427;BME280;46274;47.168;27.604;2023-04-25T23:57:42;98427.56;;;11.06;81.34
